createdAt,value
2022-12-25T00:00:28.474Z,33.83
2022-12-25T00:05:31.081Z,32.72
2022-12-25T00:10:37.474Z,32.07
2022-12-25T00:15:43.729Z,34.50
2022-12-25T00:20:46.199Z,35.70
2022-12-25T00:25:48.647Z,33.90
2022-12-25T00:30:53.616Z,33.92
2022-12-25T00:35:59.581Z,35.58
2022-12-25T00:41:05.572Z,36.53
2022-12-25T00:46:10.503Z,34.25
2022-12-25T00:51:13.110Z,35.78
2022-12-25T00:56:15.670Z,33.67
2022-12-25T01:01:19.600Z,34.97
2022-12-25T01:06:22.175Z,37.38
2022-12-25T01:11:24.636Z,35.25
2022-12-25T01:16:28.758Z,38.30
2022-12-25T01:21:31.303Z,35.28
2022-12-25T01:26:33.809Z,36.83
2022-12-25T01:31:37.759Z,36.97
2022-12-25T01:36:40.222Z,34.35
2022-12-25T01:41:42.812Z,35.97
2022-12-25T01:46:46.718Z,33.93
2022-12-25T01:51:50.723Z,33.13
2022-12-25T01:56:54.740Z,32.15
2022-12-25T02:01:59.298Z,31.13
2022-12-25T02:07:01.993Z,31.33
2022-12-25T02:12:06.037Z,28.83
2022-12-25T02:17:13.319Z,25.52
2022-12-25T02:22:21.370Z,26.35
2022-12-25T02:27:27.638Z,26.88
2022-12-25T02:32:33.307Z,24.08
2022-12-25T02:37:38.502Z,23.67
2022-12-25T02:43:01.775Z,25.73
2022-12-25T02:48:23.940Z,23.20
2022-12-25T02:53:44.688Z,23.38
2022-12-25T02:59:06.496Z,23.38
2022-12-25T03:04:29.649Z,25.55
2022-12-25T03:09:52.951Z,23.63
2022-12-25T03:15:13.336Z,22.73
2022-12-25T03:20:34.806Z,22.98
2022-12-25T03:25:54.514Z,25.88
2022-12-25T03:31:13.474Z,23.27
2022-12-25T03:36:20.696Z,22.73
2022-12-25T03:41:44.421Z,22.80
2022-12-25T03:47:05.658Z,21.63
2022-12-25T03:52:29.138Z,21.38
2022-12-25T03:57:52.526Z,21.73
2022-12-25T04:03:14.601Z,24.10
2022-12-25T04:08:36.081Z,22.17
2022-12-25T04:13:55.925Z,22.08
2022-12-25T04:19:24.119Z,23.00
2022-12-25T04:24:45.427Z,21.77
2022-12-25T04:30:05.232Z,21.65
2022-12-25T04:35:25.563Z,19.25
2022-12-25T04:40:29.436Z,19.90
2022-12-25T04:45:32.844Z,18.55
2022-12-25T04:50:35.251Z,21.65
2022-12-25T04:55:39.133Z,19.13
2022-12-25T05:00:42.174Z,18.35
2022-12-25T05:05:44.584Z,18.43
2022-12-25T05:10:48.433Z,18.23
2022-12-25T05:15:50.983Z,18.65
2022-12-25T05:20:54.357Z,17.33
2022-12-25T05:25:58.300Z,17.13
2022-12-25T05:31:00.793Z,19.17
2022-12-25T05:36:04.107Z,17.33
2022-12-25T05:41:08.044Z,19.42
2022-12-25T05:46:11.252Z,17.90
2022-12-25T05:51:14.731Z,16.65
2022-12-25T06:01:21.806Z,16.85
2022-12-25T06:06:24.495Z,17.50
2022-12-25T06:11:27.961Z,17.47
2022-12-25T06:16:37.850Z,16.98
2022-12-25T06:21:40.828Z,17.38
2022-12-25T06:26:43.327Z,17.13
2022-12-25T06:31:47.193Z,18.17
2022-12-25T06:36:49.763Z,17.08
2022-12-25T06:41:52.268Z,17.83
2022-12-25T06:46:56.037Z,16.35
2022-12-25T06:51:58.640Z,15.95
2022-12-25T06:57:01.135Z,15.63
2022-12-25T07:02:05.155Z,15.88
2022-12-25T07:07:09.152Z,15.82
2022-12-25T07:12:15.599Z,14.18
2022-12-25T07:17:19.870Z,14.55
2022-12-25T07:22:22.375Z,15.07
2022-12-25T07:27:24.908Z,15.45
2022-12-25T07:32:30.799Z,15.30
2022-12-25T07:37:33.216Z,23.73
2022-12-25T07:42:35.698Z,16.35
2022-12-25T07:47:39.699Z,14.13
2022-12-25T07:52:43.822Z,14.02
2022-12-25T07:57:47.393Z,14.15
2022-12-25T08:02:51.503Z,15.75
2022-12-25T08:07:57.680Z,14.98
2022-12-25T08:13:00.765Z,15.68
2022-12-25T08:18:04.714Z,14.73
2022-12-25T08:23:07.211Z,14.93
2022-12-25T08:28:09.726Z,15.13
2022-12-25T08:33:13.499Z,15.13
2022-12-25T08:38:15.973Z,14.70
2022-12-25T08:43:18.457Z,14.30
2022-12-25T08:48:22.365Z,17.70
2022-12-25T08:53:25.110Z,14.65
2022-12-25T08:58:27.827Z,15.03
2022-12-25T09:03:33.120Z,15.07
2022-12-25T09:08:36.277Z,14.18
2022-12-25T09:13:39.285Z,16.40
2022-12-25T09:18:43.415Z,15.43
2022-12-25T09:23:46.347Z,14.65
2022-12-25T09:28:52.451Z,13.70
2022-12-25T09:33:58.625Z,12.80
2022-12-25T09:39:01.629Z,17.00
2022-12-25T09:44:06.382Z,14.38
2022-12-25T09:49:15.043Z,11.55
2022-12-25T09:54:20.697Z,13.68
2022-12-25T09:59:25.563Z,16.48
2022-12-25T10:04:40.647Z,15.40
2022-12-25T10:09:52.723Z,14.43
2022-12-25T10:15:02.453Z,12.38
2022-12-25T10:20:12.762Z,12.18
2022-12-25T10:25:16.581Z,13.30
2022-12-25T10:30:20.350Z,12.52
2022-12-25T10:35:25.397Z,12.55
2022-12-25T10:40:31.427Z,11.88
2022-12-25T10:45:43.351Z,15.48
2022-12-25T10:50:47.128Z,11.75
2022-12-25T10:55:56.665Z,12.50
2022-12-25T11:01:00.148Z,11.20
2022-12-25T11:11:07.016Z,12.23
2022-12-25T11:16:10.667Z,19.15
2022-12-25T11:21:17.577Z,18.42
2022-12-25T11:26:21.502Z,13.18
2022-12-25T11:31:37.644Z,11.27
2022-12-25T11:36:44.245Z,10.93
2022-12-25T11:41:48.664Z,11.68
2022-12-25T11:46:52.205Z,14.88
2022-12-25T11:51:56.435Z,11.52
2022-12-25T11:57:04.814Z,11.05
2022-12-25T12:02:26.016Z,12.95
2022-12-25T12:07:30.567Z,12.50
2022-12-25T12:12:36.650Z,13.50
2022-12-25T12:17:40.207Z,13.48
2022-12-25T12:22:49.939Z,10.57
2022-12-25T12:28:02.919Z,13.45
2022-12-25T12:33:08.370Z,10.43
2022-12-25T12:38:13.561Z,11.50
2022-12-25T12:43:28.257Z,13.00
2022-12-25T12:48:31.772Z,12.77
2022-12-25T12:53:35.011Z,12.43
2022-12-25T12:58:45.328Z,12.15
2022-12-25T13:04:02.775Z,16.50
2022-12-25T13:09:10.511Z,17.98
2022-12-25T13:14:36.115Z,19.77
2022-12-25T13:20:00.422Z,12.82
2022-12-25T13:25:11.230Z,15.88
2022-12-25T13:30:14.728Z,15.30
2022-12-25T13:35:18.814Z,18.80
2022-12-25T13:40:29.263Z,16.60
2022-12-25T13:45:34.031Z,18.48
2022-12-25T13:50:38.328Z,19.00
2022-12-25T13:55:42.948Z,17.75
2022-12-25T14:01:06.197Z,19.23
2022-12-25T14:06:17.646Z,19.52
2022-12-25T14:11:22.647Z,20.70
2022-12-25T14:16:26.095Z,22.92
2022-12-25T14:26:33.495Z,23.45
2022-12-25T14:31:38.434Z,25.70
2022-12-25T14:36:41.121Z,24.20
2022-12-25T14:41:53.110Z,25.43
2022-12-25T14:47:05.282Z,28.08
2022-12-25T14:52:11.451Z,32.80
2022-12-25T14:57:23.720Z,33.13
2022-12-25T15:02:26.716Z,35.40
2022-12-25T15:07:30.521Z,35.67
2022-12-25T15:12:34.399Z,35.60
2022-12-25T15:17:38.201Z,57.78
2022-12-25T15:23:17.856Z,48.17
2022-12-25T15:28:10.844Z,53.50
2022-12-25T15:33:16.074Z,42.30
2022-12-25T15:38:20.199Z,37.38
2022-12-25T15:43:41.026Z,33.28
2022-12-25T15:48:45.125Z,56.05
2022-12-25T15:53:47.697Z,70.10
2022-12-25T15:58:51.927Z,58.93
2022-12-25T16:04:15.898Z,55.58
2022-12-25T16:09:20.123Z,58.42
2022-12-25T16:14:25.278Z,51.55
2022-12-25T16:19:27.905Z,49.90
2022-12-25T16:24:30.442Z,41.30
2022-12-25T16:29:37.395Z,38.25
2022-12-25T16:34:40.787Z,41.55
2022-12-25T16:44:47.119Z,37.78
2022-12-25T16:49:49.689Z,41.90
2022-12-25T16:54:52.313Z,43.27
2022-12-25T16:59:56.503Z,58.70
2022-12-25T17:05:00.477Z,52.75
2022-12-25T17:10:03.346Z,55.47
2022-12-25T17:15:08.789Z,55.33
2022-12-25T17:20:11.950Z,52.05
2022-12-25T17:25:14.658Z,50.92
2022-12-25T17:30:20.226Z,47.13
2022-12-25T17:35:24.548Z,50.42
2022-12-25T17:40:29.519Z,57.63
2022-12-25T17:45:32.607Z,55.78
2022-12-25T17:50:43.937Z,55.13
2022-12-25T17:56:08.345Z,54.22
2022-12-25T18:06:16.025Z,71.10
2022-12-25T18:11:19.761Z,61.60
2022-12-25T18:16:23.831Z,57.72
2022-12-25T18:21:28.310Z,60.72
2022-12-25T18:26:30.917Z,60.03
2022-12-25T18:31:33.915Z,54.03
2022-12-25T18:36:38.036Z,70.80
2022-12-25T18:42:01.216Z,67.63
2022-12-25T18:47:04.305Z,82.30
2022-12-25T18:52:49.304Z,75.78
2022-12-25T18:57:33.517Z,84.90
2022-12-25T19:02:36.189Z,91.22
2022-12-25T19:07:40.181Z,71.77
2022-12-25T19:12:42.820Z,80.43
2022-12-25T19:17:45.523Z,95.10
2022-12-25T19:22:50.218Z,68.90
2022-12-25T19:27:52.889Z,64.50
2022-12-25T19:32:55.442Z,76.47
2022-12-25T19:37:59.443Z,61.57
2022-12-25T19:43:02.109Z,77.28
2022-12-25T19:48:05.039Z,66.97
2022-12-25T19:53:09.319Z,63.28
2022-12-25T19:58:12.066Z,76.72
2022-12-25T20:03:15.070Z,65.30
2022-12-25T20:08:19.696Z,69.50
2022-12-25T20:13:22.723Z,53.47
2022-12-25T20:18:27.543Z,67.65
2022-12-25T20:23:31.528Z,72.10
2022-12-25T20:28:35.003Z,70.47
2022-12-25T20:38:41.888Z,48.13
2022-12-25T20:43:45.738Z,71.43
2022-12-25T20:48:48.506Z,61.55
2022-12-25T20:53:53.079Z,77.80
2022-12-25T20:58:55.872Z,65.00
2022-12-25T21:04:00.023Z,72.30
2022-12-25T21:09:06.434Z,105.90
2022-12-25T21:14:09.215Z,67.50
2022-12-25T21:19:12.416Z,72.53
2022-12-25T21:24:16.392Z,65.28
2022-12-25T21:29:28.600Z,72.97
2022-12-25T21:34:31.635Z,78.85
2022-12-25T21:39:36.490Z,62.42
2022-12-25T21:44:39.167Z,66.93
2022-12-25T21:49:59.289Z,89.33
2022-12-25T21:55:03.368Z,79.10
2022-12-25T22:00:08.621Z,65.57
2022-12-25T22:05:32.621Z,63.95
2022-12-25T22:10:38.203Z,62.05
2022-12-25T22:15:59.806Z,52.00
2022-12-25T22:21:03.613Z,45.45
2022-12-25T22:26:07.881Z,39.72
2022-12-25T22:31:10.544Z,42.08
2022-12-25T22:36:13.237Z,39.17
2022-12-25T22:41:17.252Z,36.60
2022-12-25T22:46:19.948Z,36.33
2022-12-25T22:51:22.815Z,36.72
2022-12-25T22:56:26.963Z,37.67
2022-12-25T23:01:29.777Z,32.47
2022-12-25T23:06:32.825Z,32.47
2022-12-25T23:11:37.191Z,31.98
2022-12-25T23:16:41.175Z,32.58
2022-12-25T23:22:01.634Z,28.63
2022-12-25T23:27:05.830Z,28.63
2022-12-25T23:32:09.432Z,29.23
2022-12-25T23:37:12.571Z,29.70
2022-12-25T23:42:16.495Z,29.23
2022-12-25T23:47:19.524Z,28.38
2022-12-25T23:52:22.134Z,28.38
2022-12-25T23:57:26.137Z,28.83
